createdAt,value
2023-07-03T00:00:36.311Z,100.00
2023-07-03T00:03:06.894Z,100.00
2023-07-03T00:05:40.364Z,100.00
2023-07-03T00:08:14.455Z,100.00
2023-07-03T00:10:44.619Z,100.00
2023-07-03T00:13:15.048Z,100.00
2023-07-03T00:15:45.574Z,100.00
2023-07-03T00:18:15.731Z,100.00
2023-07-03T00:20:45.882Z,100.00
2023-07-03T00:23:18.737Z,100.00
2023-07-03T00:25:49.184Z,100.00
2023-07-03T00:28:19.582Z,100.00
2023-07-03T00:30:50.011Z,100.00
2023-07-03T00:33:20.263Z,100.00
2023-07-03T00:35:50.600Z,100.00
2023-07-03T00:38:25.529Z,100.00
2023-07-03T00:40:55.642Z,100.00
2023-07-03T00:43:25.966Z,100.00
2023-07-03T00:45:56.293Z,100.00
2023-07-03T00:48:26.528Z,100.00
2023-07-03T00:50:56.605Z,100.00
2023-07-03T00:53:29.798Z,100.00
2023-07-03T00:56:00.151Z,100.00
2023-07-03T00:58:31.262Z,100.00
2023-07-03T01:01:07.498Z,100.00
2023-07-03T01:03:44.906Z,100.00
2023-07-03T01:06:20.935Z,100.00
2023-07-03T01:09:00.749Z,100.00
2023-07-03T01:11:31.648Z,100.00
2023-07-03T01:14:05.459Z,100.00
2023-07-03T01:16:38.428Z,100.00
2023-07-03T01:19:15.424Z,100.00
2023-07-03T01:21:53.348Z,100.00
2023-07-03T01:24:34.962Z,100.00
2023-07-03T01:27:07.782Z,100.00
2023-07-03T01:29:38.865Z,100.00
2023-07-03T01:32:11.531Z,100.00
2023-07-03T01:34:47.011Z,100.00
2023-07-03T01:37:18.645Z,100.00
2023-07-03T01:39:53.128Z,100.00
2023-07-03T01:42:25.336Z,100.00
2023-07-03T01:44:55.530Z,100.00
2023-07-03T01:47:25.759Z,100.00
2023-07-03T01:49:56.037Z,100.00
2023-07-03T01:52:31.911Z,100.00
2023-07-03T01:55:09.798Z,100.00
2023-07-03T01:57:48.116Z,100.00
2023-07-03T02:00:32.836Z,100.00
2023-07-03T02:03:07.501Z,100.00
2023-07-03T02:05:43.209Z,100.00
2023-07-03T02:08:14.637Z,100.00
2023-07-03T02:10:47.512Z,100.00
2023-07-03T02:13:18.572Z,100.00
2023-07-03T02:15:49.362Z,100.00
2023-07-03T02:18:22.275Z,100.00
2023-07-03T02:20:53.455Z,100.00
2023-07-03T02:23:23.524Z,100.00
2023-07-03T02:25:56.349Z,100.00
2023-07-03T02:28:29.821Z,100.00
2023-07-03T02:31:00.975Z,100.00
2023-07-03T02:33:31.196Z,100.00
2023-07-03T02:36:01.272Z,100.00
2023-07-03T02:38:31.344Z,100.00
2023-07-03T02:41:06.099Z,100.00
2023-07-03T02:43:36.201Z,100.00
2023-07-03T02:46:10.694Z,100.00
2023-07-03T02:48:41.057Z,100.00
2023-07-03T02:51:12.088Z,100.00
2023-07-03T02:53:42.198Z,100.00
2023-07-03T02:56:18.454Z,100.00
2023-07-03T02:58:51.269Z,100.00
2023-07-03T03:01:27.744Z,100.00
2023-07-03T03:03:59.935Z,100.00
2023-07-03T03:06:30.643Z,100.00
2023-07-03T03:09:00.719Z,100.00
2023-07-03T03:11:36.524Z,100.00
2023-07-03T03:14:07.616Z,100.00
2023-07-03T03:16:38.527Z,100.00
2023-07-03T03:19:08.702Z,100.00
2023-07-03T03:21:39.555Z,100.00
2023-07-03T03:24:10.768Z,100.00
2023-07-03T03:26:43.480Z,100.00
2023-07-03T03:29:13.773Z,100.00
2023-07-03T03:31:44.770Z,100.00
2023-07-03T03:34:15.898Z,100.00
2023-07-03T03:36:46.760Z,100.00
2023-07-03T03:39:16.966Z,100.00
2023-07-03T03:41:49.776Z,100.00
2023-07-03T03:44:19.888Z,100.00
2023-07-03T03:46:51.032Z,100.00
2023-07-03T03:49:21.138Z,100.00
2023-07-03T03:51:52.341Z,100.00
2023-07-03T03:54:23.110Z,100.00
2023-07-03T03:56:56.146Z,100.00
2023-07-03T03:59:26.472Z,100.00
2023-07-03T04:01:56.785Z,100.00
2023-07-03T04:04:26.987Z,100.00
2023-07-03T04:06:57.125Z,100.00
2023-07-03T04:09:27.305Z,100.00
2023-07-03T04:12:00.104Z,100.00
2023-07-03T04:14:30.276Z,100.00
2023-07-03T04:17:01.916Z,100.00
2023-07-03T04:19:33.022Z,100.00
2023-07-03T04:22:03.131Z,100.00
2023-07-03T04:24:33.286Z,100.00
2023-07-03T04:27:06.537Z,100.00
2023-07-03T04:29:36.768Z,100.00
2023-07-03T04:32:07.433Z,100.00
2023-07-03T04:34:37.712Z,100.00
2023-07-03T04:37:09.863Z,100.00
2023-07-03T04:39:40.146Z,100.00
2023-07-03T04:42:14.965Z,100.00
2023-07-03T04:44:45.286Z,100.00
2023-07-03T04:47:17.213Z,100.00
2023-07-03T04:49:47.554Z,100.00
2023-07-03T04:52:19.679Z,100.00
2023-07-03T04:54:49.810Z,100.00
2023-07-03T04:57:22.485Z,100.00
2023-07-03T04:59:52.935Z,100.00
2023-07-03T05:02:23.137Z,100.00
2023-07-03T05:04:53.296Z,100.00
2023-07-03T05:07:23.878Z,100.00
2023-07-03T05:09:55.019Z,100.00
2023-07-03T05:12:27.770Z,100.00
2023-07-03T05:14:58.385Z,100.00
2023-07-03T05:17:28.763Z,100.00
2023-07-03T05:19:59.574Z,100.00
2023-07-03T05:22:29.716Z,100.00
2023-07-03T05:25:01.497Z,100.00
2023-07-03T05:27:34.426Z,100.00
2023-07-03T05:30:04.791Z,100.00
2023-07-03T05:32:35.311Z,100.00
2023-07-03T05:35:06.793Z,100.00
2023-07-03T05:37:37.995Z,100.00
2023-07-03T05:40:10.615Z,100.00
2023-07-03T05:42:43.381Z,100.00
2023-07-03T05:45:14.854Z,100.00
2023-07-03T05:47:45.089Z,100.00
2023-07-03T05:50:15.327Z,100.00
2023-07-03T05:52:45.757Z,100.00
2023-07-03T05:55:15.949Z,100.00
2023-07-03T05:57:48.701Z,100.00
2023-07-03T06:00:19.916Z,100.00
2023-07-03T06:02:53.346Z,100.00
2023-07-03T06:05:24.118Z,100.00
2023-07-03T06:07:54.323Z,100.00
2023-07-03T06:10:25.048Z,99.45
2023-07-03T06:12:57.778Z,98.83
2023-07-03T06:15:28.796Z,99.24
2023-07-03T06:17:59.850Z,98.53
2023-07-03T06:20:30.128Z,93.38
2023-07-03T06:23:00.428Z,94.64
2023-07-03T06:25:30.571Z,96.08
2023-07-03T06:28:03.674Z,96.45
2023-07-03T06:30:35.869Z,90.18
2023-07-03T06:33:06.215Z,94.31
2023-07-03T06:35:36.403Z,93.50
2023-07-03T06:38:06.564Z,93.41
2023-07-03T06:40:36.780Z,96.14
2023-07-03T06:43:09.571Z,90.13
2023-07-03T06:45:41.103Z,88.72
2023-07-03T06:48:11.863Z,88.22
2023-07-03T06:50:42.030Z,80.50
2023-07-03T06:53:12.243Z,78.68
2023-07-03T06:55:42.368Z,79.51
2023-07-03T06:58:15.108Z,78.55
2023-07-03T07:00:45.846Z,71.16
2023-07-03T07:03:16.044Z,72.71
2023-07-03T07:05:47.137Z,75.37
2023-07-03T07:08:18.171Z,74.08
2023-07-03T07:10:48.772Z,66.47
2023-07-03T07:13:21.461Z,63.05
2023-07-03T07:15:52.288Z,66.33
2023-07-03T07:18:22.827Z,68.10
2023-07-03T07:20:55.696Z,64.56
2023-07-03T07:23:25.932Z,61.17
2023-07-03T07:25:58.698Z,62.59
2023-07-03T07:28:31.998Z,58.06
2023-07-03T07:31:02.101Z,61.70
2023-07-03T07:33:32.417Z,57.09
2023-07-03T07:36:02.600Z,55.66
2023-07-03T07:38:32.674Z,52.81
2023-07-03T07:41:06.816Z,52.81
2023-07-03T07:43:39.575Z,51.89
2023-07-03T07:46:09.847Z,53.07
2023-07-03T07:48:40.633Z,47.51
2023-07-03T07:51:12.225Z,48.39
2023-07-03T07:53:42.589Z,46.12
2023-07-03T07:56:14.941Z,49.65
2023-07-03T07:58:47.745Z,47.93
2023-07-03T08:01:18.630Z,47.15
2023-07-03T08:03:49.253Z,43.15
2023-07-03T08:06:19.850Z,47.81
2023-07-03T08:08:50.018Z,49.11
2023-07-03T08:11:20.296Z,47.32
2023-07-03T08:13:53.193Z,49.11
2023-07-03T08:16:23.424Z,47.67
2023-07-03T08:18:53.634Z,46.81
2023-07-03T08:21:24.136Z,47.49
2023-07-03T08:23:54.315Z,48.73
2023-07-03T08:26:26.850Z,48.04
2023-07-03T08:28:59.592Z,45.14
2023-07-03T08:31:29.734Z,45.07
2023-07-03T08:33:59.887Z,44.56
2023-07-03T08:39:03.326Z,44.72
2023-07-03T08:41:34.248Z,43.17
2023-07-03T08:44:07.327Z,42.24
2023-07-03T08:46:38.322Z,42.69
2023-07-03T08:49:10.615Z,45.66
2023-07-03T08:51:42.781Z,42.89
2023-07-03T08:54:19.025Z,44.51
2023-07-03T08:56:50.815Z,45.91
2023-07-03T08:59:23.567Z,42.68
2023-07-03T09:02:00.568Z,43.02
2023-07-03T09:04:47.451Z,43.28
2023-07-03T09:07:22.777Z,42.38
2023-07-03T09:10:01.325Z,41.02
2023-07-03T09:12:37.879Z,41.59
2023-07-03T09:15:19.016Z,43.90
2023-07-03T09:17:50.338Z,37.96
2023-07-03T09:20:20.712Z,42.45
2023-07-03T09:22:55.122Z,43.34
2023-07-03T09:25:34.755Z,40.75
2023-07-03T09:28:07.072Z,39.58
2023-07-03T09:30:40.410Z,41.49
2023-07-03T09:33:11.032Z,38.20
2023-07-03T09:35:43.980Z,38.87
2023-07-03T09:38:15.207Z,39.29
2023-07-03T09:40:47.074Z,40.22
2023-07-03T09:43:19.435Z,39.07
2023-07-03T09:45:53.551Z,38.92
2023-07-03T09:48:28.529Z,39.63
2023-07-03T09:51:07.347Z,40.10
2023-07-03T09:53:43.316Z,38.39
2023-07-03T09:56:18.559Z,36.98
2023-07-03T09:58:50.751Z,38.74
2023-07-03T10:06:43.931Z,36.06
2023-07-03T10:12:04.492Z,39.49
2023-07-03T10:14:40.824Z,39.32
2023-07-03T10:17:17.450Z,36.36
2023-07-03T10:20:01.223Z,37.10
2023-07-03T10:22:31.610Z,35.89
2023-07-03T10:25:07.183Z,38.71
2023-07-03T10:27:39.848Z,36.84
2023-07-03T10:30:16.672Z,38.51
2023-07-03T10:32:53.163Z,39.70
2023-07-03T10:35:29.045Z,40.10
2023-07-03T10:38:06.611Z,36.91
2023-07-03T10:40:42.761Z,37.22
2023-07-03T10:43:16.769Z,36.76
2023-07-03T10:45:48.860Z,40.71
2023-07-03T10:48:24.879Z,35.61
2023-07-03T10:51:02.713Z,38.71
2023-07-03T10:53:41.633Z,36.39
2023-07-03T10:56:20.487Z,36.08
2023-07-03T10:58:59.108Z,36.10
2023-07-03T11:01:35.612Z,36.96
2023-07-03T11:04:24.869Z,34.94
2023-07-03T11:07:07.395Z,34.37
2023-07-03T11:09:47.135Z,34.28
2023-07-03T11:12:25.722Z,34.52
2023-07-03T11:15:06.793Z,37.18
2023-07-03T11:20:28.448Z,38.40
2023-07-03T11:23:05.397Z,37.29
2023-07-03T11:28:38.432Z,37.37
2023-07-03T11:31:10.983Z,36.89
2023-07-03T11:36:51.551Z,38.13
2023-07-03T11:44:51.696Z,38.33
2023-07-03T11:47:27.076Z,37.51
2023-07-03T11:50:01.953Z,39.00
2023-07-03T11:52:39.584Z,36.78
2023-07-03T11:55:15.509Z,39.71
2023-07-03T11:58:04.490Z,38.77
2023-07-03T12:00:44.281Z,37.65
2023-07-03T12:03:15.832Z,36.26
2023-07-03T12:05:58.353Z,37.60
2023-07-03T12:08:49.502Z,36.70
2023-07-03T12:11:21.746Z,38.27
2023-07-03T12:13:56.984Z,38.41
2023-07-03T12:16:33.969Z,39.28
2023-07-03T12:19:12.503Z,39.65
2023-07-03T12:21:49.237Z,41.22
2023-07-03T12:24:31.285Z,39.31
2023-07-03T12:27:04.848Z,39.09
2023-07-03T12:29:36.891Z,38.37
2023-07-03T12:32:09.964Z,40.84
2023-07-03T12:34:42.017Z,36.73
2023-07-03T12:37:16.711Z,37.38
2023-07-03T12:39:50.458Z,38.06
2023-07-03T12:42:25.307Z,40.52
2023-07-03T12:44:57.150Z,39.54
2023-07-03T12:47:27.292Z,38.27
2023-07-03T12:50:01.297Z,39.00
2023-07-03T12:52:33.417Z,37.90
2023-07-03T12:55:14.604Z,40.23
2023-07-03T12:57:46.561Z,36.22
2023-07-03T13:00:28.589Z,37.61
2023-07-03T13:03:01.616Z,38.91
2023-07-03T13:05:35.792Z,40.39
2023-07-03T13:08:08.295Z,38.71
2023-07-03T13:10:41.262Z,39.52
2023-07-03T13:13:13.739Z,41.64
2023-07-03T13:15:51.298Z,40.22
2023-07-03T13:18:24.308Z,39.01
2023-07-03T13:21:00.967Z,40.76
2023-07-03T13:23:38.205Z,38.87
2023-07-03T13:26:32.547Z,41.57
2023-07-03T13:29:07.902Z,37.50
2023-07-03T13:31:51.295Z,38.29
2023-07-03T13:34:30.440Z,39.39
2023-07-03T13:37:10.617Z,40.58
2023-07-03T13:40:00.022Z,39.19
2023-07-03T13:42:38.503Z,39.41
2023-07-03T13:45:18.452Z,39.94
2023-07-03T13:47:49.802Z,38.77
2023-07-03T13:50:20.926Z,40.78
2023-07-03T13:52:56.543Z,42.69
2023-07-03T13:55:29.117Z,44.96
2023-07-03T13:58:04.721Z,44.38
2023-07-03T14:00:35.493Z,43.34
2023-07-03T14:03:05.838Z,45.92
2023-07-03T14:05:36.648Z,44.90
2023-07-03T14:08:07.088Z,42.73
2023-07-03T14:10:40.828Z,47.28
2023-07-03T14:13:16.254Z,44.42
2023-07-03T14:15:47.749Z,44.64
2023-07-03T14:18:20.893Z,46.08
2023-07-03T14:20:55.623Z,50.03
2023-07-03T14:23:28.316Z,50.00
2023-07-03T14:26:00.348Z,49.86
2023-07-03T14:28:33.197Z,51.50
2023-07-03T14:31:03.594Z,48.63
2023-07-03T14:33:34.776Z,51.03
2023-07-03T14:36:05.081Z,49.28
2023-07-03T14:38:35.647Z,50.04
2023-07-03T14:41:07.716Z,49.92
2023-07-03T14:43:41.205Z,51.80
2023-07-03T14:46:12.672Z,48.76
2023-07-03T14:48:43.569Z,49.66
2023-07-03T14:51:15.812Z,48.28
2023-07-03T14:53:46.587Z,49.23
2023-07-03T14:56:18.064Z,51.48
2023-07-03T14:58:51.228Z,52.70
2023-07-03T15:01:25.049Z,51.16
2023-07-03T15:03:58.481Z,51.95
2023-07-03T15:06:29.990Z,51.81
2023-07-03T15:09:00.045Z,51.37
2023-07-03T15:11:31.449Z,52.98
2023-07-03T15:14:05.100Z,52.80
2023-07-03T15:16:37.513Z,54.43
2023-07-03T15:19:10.107Z,53.79
2023-07-03T15:21:44.374Z,54.68
2023-07-03T15:24:14.620Z,52.68
2023-07-03T15:26:46.267Z,52.95
2023-07-03T15:29:19.306Z,53.73
2023-07-03T15:31:52.091Z,53.75
2023-07-03T15:34:26.545Z,54.30
2023-07-03T15:37:00.380Z,52.89
2023-07-03T15:39:40.681Z,55.17
2023-07-03T15:42:10.977Z,55.45
2023-07-03T15:44:43.798Z,55.11
2023-07-03T15:47:14.519Z,56.80
2023-07-03T15:49:44.636Z,57.91
2023-07-03T15:52:14.732Z,55.20
2023-07-03T15:54:44.874Z,60.90
2023-07-03T15:57:14.968Z,59.74
2023-07-03T15:59:47.874Z,59.69
2023-07-03T16:02:17.845Z,55.42
2023-07-03T16:04:48.032Z,58.38
2023-07-03T16:07:18.384Z,57.62
2023-07-03T16:09:48.519Z,56.86
2023-07-03T16:12:18.669Z,59.47
2023-07-03T16:14:52.781Z,62.07
2023-07-03T16:17:22.995Z,62.25
2023-07-03T16:20:07.854Z,61.41
2023-07-03T16:22:40.800Z,60.33
2023-07-03T16:25:11.987Z,61.12
2023-07-03T16:27:42.099Z,62.58
2023-07-03T16:30:15.442Z,64.11
2023-07-03T16:32:47.243Z,63.25
2023-07-03T16:35:17.656Z,68.49
2023-07-03T16:37:48.106Z,68.92
2023-07-03T16:40:18.742Z,67.92
2023-07-03T16:42:50.291Z,70.96
2023-07-03T16:45:26.155Z,69.95
2023-07-03T16:47:57.477Z,73.79
2023-07-03T16:50:27.680Z,73.14
2023-07-03T16:52:57.782Z,72.06
2023-07-03T16:55:28.100Z,76.52
2023-07-03T16:57:58.209Z,72.13
2023-07-03T17:00:31.862Z,69.51
2023-07-03T17:03:02.236Z,76.33
2023-07-03T17:05:32.754Z,74.40
2023-07-03T17:08:03.005Z,70.66
2023-07-03T17:10:33.786Z,73.66
2023-07-03T17:13:03.968Z,75.72
2023-07-03T17:15:37.007Z,76.18
2023-07-03T17:18:07.014Z,74.55
2023-07-03T17:20:37.183Z,77.04
2023-07-03T17:23:07.453Z,72.38
2023-07-03T17:25:37.717Z,75.86
2023-07-03T17:28:08.456Z,73.56
2023-07-03T17:30:41.984Z,72.81
2023-07-03T17:33:12.521Z,72.51
2023-07-03T17:35:44.416Z,74.78
2023-07-03T17:38:14.935Z,76.91
2023-07-03T17:40:48.037Z,75.48
2023-07-03T17:43:22.898Z,76.37
2023-07-03T17:45:56.355Z,78.70
2023-07-03T17:48:27.479Z,81.52
2023-07-03T17:50:57.562Z,80.43
2023-07-03T17:53:27.837Z,82.65
2023-07-03T17:55:57.981Z,84.37
2023-07-03T17:58:28.203Z,83.51
2023-07-03T18:01:02.764Z,85.56
2023-07-03T18:03:34.186Z,87.68
2023-07-03T18:06:04.687Z,88.23
2023-07-03T18:08:35.095Z,88.04
2023-07-03T18:11:05.354Z,87.50
2023-07-03T18:13:35.841Z,88.62
2023-07-03T18:16:08.637Z,90.83
2023-07-03T18:18:38.914Z,90.72
2023-07-03T18:21:09.046Z,90.99
2023-07-03T18:23:39.206Z,90.80
2023-07-03T18:26:09.546Z,91.65
2023-07-03T18:28:39.651Z,91.55
2023-07-03T18:31:12.543Z,93.27
2023-07-03T18:33:42.723Z,94.93
2023-07-03T18:36:12.920Z,94.66
2023-07-03T18:38:43.150Z,95.00
2023-07-03T18:41:25.422Z,96.27
2023-07-03T18:44:00.952Z,97.62
2023-07-03T18:46:41.320Z,96.66
2023-07-03T18:49:18.224Z,96.50
2023-07-03T18:51:55.818Z,99.81
2023-07-03T18:54:29.123Z,100.00
2023-07-03T18:57:06.625Z,100.00
2023-07-03T18:59:45.901Z,100.00
2023-07-03T19:02:29.687Z,100.00
2023-07-03T19:04:59.910Z,100.00
2023-07-03T19:07:35.080Z,100.00
2023-07-03T19:10:18.458Z,100.00
2023-07-03T19:13:02.974Z,100.00
2023-07-03T19:15:35.029Z,100.00
2023-07-03T19:18:07.905Z,100.00
2023-07-03T19:20:38.732Z,100.00
2023-07-03T19:23:08.869Z,100.00
2023-07-03T19:25:38.998Z,100.00
2023-07-03T19:28:09.317Z,100.00
2023-07-03T19:30:39.887Z,100.00
2023-07-03T19:33:16.111Z,100.00
2023-07-03T19:35:46.238Z,100.00
2023-07-03T19:38:17.282Z,100.00
2023-07-03T19:40:47.713Z,100.00
2023-07-03T19:43:18.472Z,100.00
2023-07-03T19:45:49.266Z,100.00
2023-07-03T19:48:22.192Z,100.00
2023-07-03T19:50:52.438Z,100.00
2023-07-03T19:53:22.560Z,100.00
2023-07-03T19:55:52.908Z,100.00
2023-07-03T19:58:25.898Z,100.00
2023-07-03T20:00:57.076Z,100.00
2023-07-03T20:03:30.156Z,100.00
2023-07-03T20:06:00.626Z,100.00
2023-07-03T20:08:32.584Z,100.00
2023-07-03T20:11:03.662Z,100.00
2023-07-03T20:13:33.948Z,100.00
2023-07-03T20:16:05.709Z,100.00
2023-07-03T20:18:39.872Z,100.00
2023-07-03T20:21:11.256Z,100.00
2023-07-03T20:23:43.691Z,100.00
2023-07-03T20:26:13.941Z,100.00
2023-07-03T20:28:44.199Z,100.00
2023-07-03T20:31:17.024Z,100.00
2023-07-03T20:33:50.128Z,100.00
2023-07-03T20:36:21.252Z,100.00
2023-07-03T20:38:51.480Z,100.00
2023-07-03T20:41:21.625Z,100.00
2023-07-03T20:43:51.764Z,100.00
2023-07-03T20:46:22.763Z,100.00
2023-07-03T20:48:58.216Z,100.00
2023-07-03T20:51:33.770Z,100.00
2023-07-03T20:54:05.980Z,100.00
2023-07-03T20:56:40.493Z,100.00
2023-07-03T20:59:12.380Z,100.00
2023-07-03T21:01:44.251Z,100.00
2023-07-03T21:04:17.509Z,100.00
2023-07-03T21:06:50.512Z,100.00
2023-07-03T21:09:21.497Z,100.00
2023-07-03T21:11:51.670Z,100.00
2023-07-03T21:14:22.273Z,100.00
2023-07-03T21:16:52.511Z,100.00
2023-07-03T21:19:25.316Z,100.00
2023-07-03T21:21:55.441Z,100.00
2023-07-03T21:24:25.634Z,100.00
2023-07-03T21:26:55.784Z,100.00
2023-07-03T21:29:25.926Z,100.00
2023-07-03T21:31:56.093Z,100.00
2023-07-03T21:34:28.932Z,100.00
2023-07-03T21:36:59.139Z,100.00
2023-07-03T21:39:29.307Z,100.00
2023-07-03T21:41:59.390Z,100.00
2023-07-03T21:44:29.562Z,100.00
2023-07-03T21:47:01.826Z,100.00
2023-07-03T21:49:35.175Z,100.00
2023-07-03T21:52:05.680Z,100.00
2023-07-03T21:54:35.830Z,100.00
2023-07-03T21:57:06.069Z,100.00
2023-07-03T21:59:36.323Z,100.00
2023-07-03T22:02:06.838Z,100.00
2023-07-03T22:04:39.608Z,100.00
2023-07-03T22:07:10.015Z,100.00
2023-07-03T22:09:40.301Z,100.00
2023-07-03T22:12:12.265Z,100.00
2023-07-03T22:14:42.420Z,100.00
2023-07-03T22:17:12.542Z,100.00
2023-07-03T22:19:45.973Z,100.00
2023-07-03T22:22:16.076Z,100.00
2023-07-03T22:24:46.415Z,100.00
2023-07-03T22:27:16.596Z,100.00
2023-07-03T22:29:46.879Z,100.00
2023-07-03T22:32:17.013Z,100.00
2023-07-03T22:34:50.221Z,100.00
2023-07-03T22:37:20.414Z,100.00
2023-07-03T22:39:50.520Z,100.00
2023-07-03T22:42:20.821Z,100.00
2023-07-03T22:44:51.036Z,100.00
2023-07-03T22:47:21.267Z,100.00
2023-07-03T22:49:54.116Z,100.00
2023-07-03T22:52:25.707Z,100.00
2023-07-03T22:54:55.905Z,100.00
2023-07-03T22:57:26.225Z,100.00
2023-07-03T22:59:57.220Z,100.00
2023-07-03T23:02:29.647Z,100.00
2023-07-03T23:05:02.528Z,100.00
2023-07-03T23:07:32.805Z,100.00
2023-07-03T23:10:03.084Z,100.00
2023-07-03T23:12:33.261Z,100.00
2023-07-03T23:15:03.667Z,100.00
2023-07-03T23:17:35.111Z,100.00
2023-07-03T23:20:12.754Z,100.00
2023-07-03T23:22:43.103Z,100.00
2023-07-03T23:25:13.489Z,100.00
2023-07-03T23:27:47.458Z,100.00
2023-07-03T23:30:18.574Z,100.00
2023-07-03T23:32:48.944Z,100.00
2023-07-03T23:35:22.850Z,100.00
2023-07-03T23:37:53.243Z,100.00
2023-07-03T23:40:23.292Z,100.00
2023-07-03T23:42:53.566Z,100.00
2023-07-03T23:45:23.996Z,100.00
2023-07-03T23:47:54.364Z,100.00
2023-07-03T23:50:27.114Z,100.00
2023-07-03T23:52:57.840Z,100.00
2023-07-03T23:55:28.133Z,100.00
2023-07-03T23:57:58.258Z,100.00
